sensor_id;sensor_type;location;lat;lon;timestamp;P1;durP1;ratioP1;P2;durP2;ratioP2
21243;SDS011;10780;50.942;4.028;2022-12-01T00:02:04;63.03;;;21.42;;
21243;SDS011;10780;50.942;4.028;2022-12-01T00:04:29;61.72;;;21.02;;
21243;SDS011;10780;50.942;4.028;2022-12-01T00:06:55;39.53;;;19.73;;
21243;SDS011;10780;50.942;4.028;2022-12-01T00:09:20;47.55;;;18.23;;
21243;SDS011;10780;50.942;4.028;2022-12-01T00:12:04;34.28;;;18.15;;
21243;SDS011;10780;50.942;4.028;2022-12-01T00:14:30;47.10;;;18.40;;
21243;SDS011;10780;50.942;4.028;2022-12-01T00:16:56;35.00;;;17.02;;
21243;SDS011;10780;50.942;4.028;2022-12-01T00:19:25;29.83;;;17.67;;
21243;SDS011;10780;50.942;4.028;2022-12-01T00:21:51;44.78;;;18.15;;
21243;SDS011;10780;50.942;4.028;2022-12-01T00:24:17;68.97;;;18.85;;
21243;SDS011;10780;50.942;4.028;2022-12-01T00:26:42;28.27;;;16.92;;
21243;SDS011;10780;50.942;4.028;2022-12-01T00:29:08;40.75;;;17.45;;
21243;SDS011;10780;50.942;4.028;2022-12-01T00:31:34;36.70;;;17.52;;
21243;SDS011;10780;50.942;4.028;2022-12-01T00:34:00;35.10;;;17.55;;
21243;SDS011;10780;50.942;4.028;2022-12-01T00:36:26;65.68;;;18.13;;
21243;SDS011;10780;50.942;4.028;2022-12-01T00:38:54;60.22;;;18.67;;
21243;SDS011;10780;50.942;4.028;2022-12-01T00:41:21;99.32;;;19.85;;
21243;SDS011;10780;50.942;4.028;2022-12-01T00:43:47;65.78;;;18.38;;
21243;SDS011;10780;50.942;4.028;2022-12-01T00:46:13;51.10;;;18.17;;
21243;SDS011;10780;50.942;4.028;2022-12-01T00:48:39;49.10;;;17.88;;
21243;SDS011;10780;50.942;4.028;2022-12-01T00:51:05;38.90;;;17.63;;
21243;SDS011;10780;50.942;4.028;2022-12-01T00:53:30;37.65;;;17.85;;
21243;SDS011;10780;50.942;4.028;2022-12-01T00:55:56;28.27;;;17.20;;
21243;SDS011;10780;50.942;4.028;2022-12-01T00:58:22;63.55;;;19.23;;
21243;SDS011;10780;50.942;4.028;2022-12-01T01:00:48;42.67;;;17.40;;
21243;SDS011;10780;50.942;4.028;2022-12-01T01:03:20;40.38;;;18.27;;
21243;SDS011;10780;50.942;4.028;2022-12-01T01:05:46;30.42;;;17.25;;
21243;SDS011;10780;50.942;4.028;2022-12-01T01:08:12;29.63;;;17.85;;
21243;SDS011;10780;50.942;4.028;2022-12-01T01:10:42;29.23;;;18.08;;
21243;SDS011;10780;50.942;4.028;2022-12-01T01:13:10;29.30;;;17.00;;
21243;SDS011;10780;50.942;4.028;2022-12-01T01:15:37;31.70;;;17.55;;
21243;SDS011;10780;50.942;4.028;2022-12-01T01:18:03;29.25;;;17.52;;
21243;SDS011;10780;50.942;4.028;2022-12-01T01:20:29;31.30;;;17.35;;
21243;SDS011;10780;50.942;4.028;2022-12-01T01:22:55;30.33;;;18.52;;
21243;SDS011;10780;50.942;4.028;2022-12-01T01:25:21;38.97;;;19.67;;
21243;SDS011;10780;50.942;4.028;2022-12-01T01:27:47;31.60;;;18.02;;
21243;SDS011;10780;50.942;4.028;2022-12-01T01:30:12;30.25;;;17.88;;
21243;SDS011;10780;50.942;4.028;2022-12-01T01:32:38;31.83;;;18.27;;
21243;SDS011;10780;50.942;4.028;2022-12-01T01:35:04;34.92;;;18.15;;
21243;SDS011;10780;50.942;4.028;2022-12-01T01:37:30;29.52;;;18.20;;
21243;SDS011;10780;50.942;4.028;2022-12-01T01:39:56;31.02;;;19.33;;
21243;SDS011;10780;50.942;4.028;2022-12-01T01:42:21;33.95;;;18.77;;
21243;SDS011;10780;50.942;4.028;2022-12-01T01:44:49;32.58;;;18.45;;
21243;SDS011;10780;50.942;4.028;2022-12-01T01:47:20;34.35;;;19.27;;
21243;SDS011;10780;50.942;4.028;2022-12-01T01:49:53;32.08;;;17.98;;
21243;SDS011;10780;50.942;4.028;2022-12-01T01:52:21;35.00;;;20.45;;
21243;SDS011;10780;50.942;4.028;2022-12-01T01:54:48;30.20;;;18.20;;
21243;SDS011;10780;50.942;4.028;2022-12-01T01:57:19;32.50;;;19.70;;
21243;SDS011;10780;50.942;4.028;2022-12-01T01:59:51;37.35;;;20.17;;
21243;SDS011;10780;50.942;4.028;2022-12-01T02:02:20;32.15;;;18.95;;
21243;SDS011;10780;50.942;4.028;2022-12-01T02:04:47;36.83;;;21.30;;
21243;SDS011;10780;50.942;4.028;2022-12-01T02:07:17;35.78;;;18.45;;
21243;SDS011;10780;50.942;4.028;2022-12-01T02:09:43;34.30;;;20.55;;
21243;SDS011;10780;50.942;4.028;2022-12-01T02:14:40;41.45;;;21.27;;
21243;SDS011;10780;50.942;4.028;2022-12-01T02:20:16;43.63;;;23.13;;
21243;SDS011;10780;50.942;4.028;2022-12-01T02:28:42;58.70;;;27.67;;
21243;SDS011;10780;50.942;4.028;2022-12-01T02:31:35;61.78;;;27.95;;
21243;SDS011;10780;50.942;4.028;2022-12-01T02:37:06;68.38;;;31.08;;
21243;SDS011;10780;50.942;4.028;2022-12-01T02:43:00;76.32;;;31.88;;
21243;SDS011;10780;50.942;4.028;2022-12-01T02:45:34;64.95;;;30.52;;
21243;SDS011;10780;50.942;4.028;2022-12-01T02:48:19;68.70;;;30.58;;
21243;SDS011;10780;50.942;4.028;2022-12-01T02:50:52;64.55;;;29.35;;
21243;SDS011;10780;50.942;4.028;2022-12-01T02:53:22;65.18;;;29.67;;
21243;SDS011;10780;50.942;4.028;2022-12-01T02:55:51;65.97;;;31.42;;
21243;SDS011;10780;50.942;4.028;2022-12-01T02:58:19;69.13;;;31.50;;
21243;SDS011;10780;50.942;4.028;2022-12-01T03:06:53;65.28;;;29.08;;
21243;SDS011;10780;50.942;4.028;2022-12-01T03:09:45;75.97;;;32.30;;
21243;SDS011;10780;50.942;4.028;2022-12-01T03:12:18;70.80;;;30.95;;
21243;SDS011;10780;50.942;4.028;2022-12-01T03:15:09;72.82;;;30.10;;
21243;SDS011;10780;50.942;4.028;2022-12-01T03:20:40;62.88;;;28.20;;
21243;SDS011;10780;50.942;4.028;2022-12-01T03:23:11;66.38;;;28.33;;
21243;SDS011;10780;50.942;4.028;2022-12-01T03:25:41;59.92;;;29.20;;
21243;SDS011;10780;50.942;4.028;2022-12-01T03:28:11;63.03;;;28.15;;
21243;SDS011;10780;50.942;4.028;2022-12-01T03:30:39;63.28;;;28.02;;
21243;SDS011;10780;50.942;4.028;2022-12-01T03:33:12;65.80;;;29.80;;
21243;SDS011;10780;50.942;4.028;2022-12-01T03:35:57;62.95;;;28.05;;
21243;SDS011;10780;50.942;4.028;2022-12-01T03:38:30;59.67;;;25.33;;
21243;SDS011;10780;50.942;4.028;2022-12-01T03:41:00;61.17;;;26.77;;
21243;SDS011;10780;50.942;4.028;2022-12-01T03:43:34;59.58;;;26.85;;
21243;SDS011;10780;50.942;4.028;2022-12-01T03:46:16;57.92;;;26.70;;
21243;SDS011;10780;50.942;4.028;2022-12-01T03:48:47;54.00;;;25.70;;
21243;SDS011;10780;50.942;4.028;2022-12-01T03:51:30;54.35;;;26.30;;
21243;SDS011;10780;50.942;4.028;2022-12-01T03:54:10;52.70;;;26.13;;
21243;SDS011;10780;50.942;4.028;2022-12-01T03:56:43;49.28;;;26.00;;
21243;SDS011;10780;50.942;4.028;2022-12-01T03:59:19;49.92;;;24.83;;
21243;SDS011;10780;50.942;4.028;2022-12-01T04:01:46;48.75;;;24.17;;
21243;SDS011;10780;50.942;4.028;2022-12-01T04:04:13;46.22;;;24.05;;
21243;SDS011;10780;50.942;4.028;2022-12-01T04:06:43;47.60;;;24.40;;
21243;SDS011;10780;50.942;4.028;2022-12-01T04:09:11;49.58;;;24.98;;
21243;SDS011;10780;50.942;4.028;2022-12-01T04:11:36;46.15;;;24.17;;
21243;SDS011;10780;50.942;4.028;2022-12-01T04:14:21;50.05;;;23.80;;
21243;SDS011;10780;50.942;4.028;2022-12-01T04:16:46;46.40;;;23.75;;
21243;SDS011;10780;50.942;4.028;2022-12-01T04:19:12;45.30;;;23.13;;
21243;SDS011;10780;50.942;4.028;2022-12-01T04:21:38;47.90;;;24.30;;
21243;SDS011;10780;50.942;4.028;2022-12-01T04:24:04;46.25;;;24.20;;
21243;SDS011;10780;50.942;4.028;2022-12-01T04:26:31;47.65;;;23.80;;
21243;SDS011;10780;50.942;4.028;2022-12-01T04:29:02;49.88;;;24.40;;
21243;SDS011;10780;50.942;4.028;2022-12-01T04:31:31;51.83;;;22.75;;
21243;SDS011;10780;50.942;4.028;2022-12-01T04:33:57;41.85;;;22.08;;
21243;SDS011;10780;50.942;4.028;2022-12-01T04:36:24;44.20;;;21.35;;
21243;SDS011;10780;50.942;4.028;2022-12-01T04:38:50;40.58;;;20.88;;
21243;SDS011;10780;50.942;4.028;2022-12-01T04:41:16;39.30;;;19.92;;
21243;SDS011;10780;50.942;4.028;2022-12-01T04:43:42;40.65;;;19.85;;
21243;SDS011;10780;50.942;4.028;2022-12-01T04:46:08;36.25;;;18.58;;
21243;SDS011;10780;50.942;4.028;2022-12-01T04:48:35;38.92;;;19.20;;
21243;SDS011;10780;50.942;4.028;2022-12-01T04:51:02;35.40;;;18.23;;
21243;SDS011;10780;50.942;4.028;2022-12-01T04:53:28;34.92;;;18.20;;
21243;SDS011;10780;50.942;4.028;2022-12-01T04:55:54;35.25;;;18.23;;
21243;SDS011;10780;50.942;4.028;2022-12-01T04:58:19;38.47;;;19.77;;
21243;SDS011;10780;50.942;4.028;2022-12-01T05:00:45;40.97;;;19.95;;
21243;SDS011;10780;50.942;4.028;2022-12-01T05:03:10;34.95;;;18.85;;
21243;SDS011;10780;50.942;4.028;2022-12-01T05:05:36;37.72;;;20.58;;
21243;SDS011;10780;50.942;4.028;2022-12-01T05:08:02;38.85;;;20.17;;
21243;SDS011;10780;50.942;4.028;2022-12-01T05:10:27;43.33;;;20.65;;
21243;SDS011;10780;50.942;4.028;2022-12-01T05:12:53;40.00;;;19.48;;
21243;SDS011;10780;50.942;4.028;2022-12-01T05:15:21;41.67;;;20.58;;
21243;SDS011;10780;50.942;4.028;2022-12-01T05:17:47;45.40;;;21.38;;
21243;SDS011;10780;50.942;4.028;2022-12-01T05:20:18;42.33;;;21.50;;
21243;SDS011;10780;50.942;4.028;2022-12-01T05:23:04;41.70;;;21.65;;
21243;SDS011;10780;50.942;4.028;2022-12-01T05:25:30;39.95;;;20.40;;
21243;SDS011;10780;50.942;4.028;2022-12-01T05:27:56;40.13;;;20.10;;
21243;SDS011;10780;50.942;4.028;2022-12-01T05:30:22;36.95;;;19.38;;
21243;SDS011;10780;50.942;4.028;2022-12-01T05:32:48;39.00;;;19.63;;
21243;SDS011;10780;50.942;4.028;2022-12-01T05:35:13;41.92;;;20.50;;
21243;SDS011;10780;50.942;4.028;2022-12-01T05:37:39;37.17;;;19.10;;
21243;SDS011;10780;50.942;4.028;2022-12-01T05:40:05;41.83;;;21.38;;
21243;SDS011;10780;50.942;4.028;2022-12-01T05:42:31;38.20;;;20.08;;
21243;SDS011;10780;50.942;4.028;2022-12-01T05:44:56;38.20;;;20.30;;
21243;SDS011;10780;50.942;4.028;2022-12-01T05:47:22;41.00;;;19.60;;
21243;SDS011;10780;50.942;4.028;2022-12-01T05:49:47;36.63;;;20.27;;
21243;SDS011;10780;50.942;4.028;2022-12-01T05:52:13;40.22;;;20.05;;
21243;SDS011;10780;50.942;4.028;2022-12-01T05:54:39;40.58;;;21.30;;
21243;SDS011;10780;50.942;4.028;2022-12-01T05:57:04;40.28;;;20.42;;
21243;SDS011;10780;50.942;4.028;2022-12-01T05:59:30;39.92;;;20.92;;
21243;SDS011;10780;50.942;4.028;2022-12-01T06:01:55;41.00;;;20.67;;
21243;SDS011;10780;50.942;4.028;2022-12-01T06:04:21;40.85;;;21.17;;
21243;SDS011;10780;50.942;4.028;2022-12-01T06:06:48;39.70;;;21.95;;
21243;SDS011;10780;50.942;4.028;2022-12-01T06:09:14;43.65;;;20.48;;
21243;SDS011;10780;50.942;4.028;2022-12-01T06:11:40;43.28;;;21.27;;
21243;SDS011;10780;50.942;4.028;2022-12-01T06:14:05;46.97;;;22.02;;
21243;SDS011;10780;50.942;4.028;2022-12-01T06:16:31;39.60;;;20.90;;
21243;SDS011;10780;50.942;4.028;2022-12-01T06:18:56;43.50;;;20.95;;
21243;SDS011;10780;50.942;4.028;2022-12-01T06:21:22;48.70;;;22.50;;
21243;SDS011;10780;50.942;4.028;2022-12-01T06:23:47;42.28;;;21.10;;
21243;SDS011;10780;50.942;4.028;2022-12-01T06:26:13;46.42;;;21.35;;
21243;SDS011;10780;50.942;4.028;2022-12-01T06:28:39;45.92;;;20.88;;
21243;SDS011;10780;50.942;4.028;2022-12-01T06:31:04;41.60;;;21.20;;
21243;SDS011;10780;50.942;4.028;2022-12-01T06:33:30;45.90;;;21.30;;
21243;SDS011;10780;50.942;4.028;2022-12-01T06:35:59;41.38;;;21.15;;
21243;SDS011;10780;50.942;4.028;2022-12-01T06:38:30;44.08;;;22.27;;
21243;SDS011;10780;50.942;4.028;2022-12-01T06:40:57;46.42;;;21.23;;
21243;SDS011;10780;50.942;4.028;2022-12-01T06:43:22;45.53;;;21.40;;
21243;SDS011;10780;50.942;4.028;2022-12-01T06:45:48;42.13;;;21.25;;
21243;SDS011;10780;50.942;4.028;2022-12-01T06:48:14;42.88;;;21.52;;
21243;SDS011;10780;50.942;4.028;2022-12-01T06:50:39;41.72;;;20.65;;
21243;SDS011;10780;50.942;4.028;2022-12-01T06:53:06;40.13;;;20.90;;
21243;SDS011;10780;50.942;4.028;2022-12-01T06:55:31;46.83;;;24.58;;
21243;SDS011;10780;50.942;4.028;2022-12-01T06:57:58;39.75;;;21.17;;
21243;SDS011;10780;50.942;4.028;2022-12-01T07:00:24;49.42;;;23.65;;
21243;SDS011;10780;50.942;4.028;2022-12-01T07:02:50;46.50;;;23.02;;
21243;SDS011;10780;50.942;4.028;2022-12-01T07:05:16;44.40;;;23.35;;
21243;SDS011;10780;50.942;4.028;2022-12-01T07:07:41;46.65;;;22.70;;
21243;SDS011;10780;50.942;4.028;2022-12-01T07:10:08;45.28;;;22.92;;
21243;SDS011;10780;50.942;4.028;2022-12-01T07:12:35;44.15;;;23.02;;
21243;SDS011;10780;50.942;4.028;2022-12-01T07:15:01;48.80;;;24.77;;
21243;SDS011;10780;50.942;4.028;2022-12-01T07:17:28;47.45;;;23.20;;
21243;SDS011;10780;50.942;4.028;2022-12-01T07:19:54;44.00;;;23.23;;
21243;SDS011;10780;50.942;4.028;2022-12-01T07:22:21;51.33;;;25.10;;
21243;SDS011;10780;50.942;4.028;2022-12-01T07:24:47;47.75;;;24.33;;
21243;SDS011;10780;50.942;4.028;2022-12-01T07:27:13;48.63;;;24.98;;
21243;SDS011;10780;50.942;4.028;2022-12-01T07:29:39;43.58;;;22.13;;
21243;SDS011;10780;50.942;4.028;2022-12-01T07:32:05;42.65;;;24.15;;
21243;SDS011;10780;50.942;4.028;2022-12-01T07:34:31;46.05;;;23.27;;
21243;SDS011;10780;50.942;4.028;2022-12-01T07:36:57;46.78;;;23.98;;
21243;SDS011;10780;50.942;4.028;2022-12-01T07:39:23;41.88;;;22.25;;
21243;SDS011;10780;50.942;4.028;2022-12-01T07:41:48;46.65;;;23.15;;
21243;SDS011;10780;50.942;4.028;2022-12-01T07:44:14;45.83;;;23.02;;
21243;SDS011;10780;50.942;4.028;2022-12-01T07:46:42;43.88;;;22.25;;
21243;SDS011;10780;50.942;4.028;2022-12-01T07:49:08;44.53;;;22.85;;
21243;SDS011;10780;50.942;4.028;2022-12-01T07:51:35;50.38;;;23.65;;
21243;SDS011;10780;50.942;4.028;2022-12-01T07:54:02;46.40;;;23.98;;
21243;SDS011;10780;50.942;4.028;2022-12-01T07:56:29;51.00;;;25.77;;
21243;SDS011;10780;50.942;4.028;2022-12-01T07:58:55;45.33;;;23.48;;
21243;SDS011;10780;50.942;4.028;2022-12-01T08:01:21;47.22;;;24.17;;
21243;SDS011;10780;50.942;4.028;2022-12-01T08:03:48;49.05;;;24.65;;
21243;SDS011;10780;50.942;4.028;2022-12-01T08:06:15;52.88;;;26.48;;
21243;SDS011;10780;50.942;4.028;2022-12-01T08:08:41;56.85;;;25.73;;
21243;SDS011;10780;50.942;4.028;2022-12-01T08:11:09;50.08;;;24.98;;
21243;SDS011;10780;50.942;4.028;2022-12-01T08:13:40;48.55;;;25.13;;
21243;SDS011;10780;50.942;4.028;2022-12-01T08:16:07;54.13;;;26.45;;
21243;SDS011;10780;50.942;4.028;2022-12-01T08:18:34;48.33;;;25.10;;
21243;SDS011;10780;50.942;4.028;2022-12-01T08:21:02;54.55;;;25.15;;
21243;SDS011;10780;50.942;4.028;2022-12-01T08:23:28;54.70;;;27.80;;
21243;SDS011;10780;50.942;4.028;2022-12-01T08:25:54;50.08;;;25.95;;
21243;SDS011;10780;50.942;4.028;2022-12-01T08:28:21;53.45;;;27.75;;
21243;SDS011;10780;50.942;4.028;2022-12-01T08:30:47;54.72;;;27.73;;
21243;SDS011;10780;50.942;4.028;2022-12-01T08:33:13;59.97;;;27.27;;
21243;SDS011;10780;50.942;4.028;2022-12-01T08:35:39;50.58;;;26.13;;
21243;SDS011;10780;50.942;4.028;2022-12-01T08:38:05;58.30;;;30.20;;
21243;SDS011;10780;50.942;4.028;2022-12-01T08:40:33;61.28;;;30.50;;
21243;SDS011;10780;50.942;4.028;2022-12-01T08:42:59;55.75;;;27.35;;
21243;SDS011;10780;50.942;4.028;2022-12-01T08:45:25;55.40;;;28.20;;
21243;SDS011;10780;50.942;4.028;2022-12-01T08:47:51;58.55;;;29.88;;
21243;SDS011;10780;50.942;4.028;2022-12-01T08:50:23;59.45;;;30.23;;
21243;SDS011;10780;50.942;4.028;2022-12-01T08:52:50;55.72;;;29.10;;
21243;SDS011;10780;50.942;4.028;2022-12-01T08:55:16;57.40;;;27.60;;
21243;SDS011;10780;50.942;4.028;2022-12-01T08:57:43;56.50;;;29.40;;
21243;SDS011;10780;50.942;4.028;2022-12-01T09:00:12;54.78;;;29.15;;
21243;SDS011;10780;50.942;4.028;2022-12-01T09:02:38;59.50;;;29.25;;
21243;SDS011;10780;50.942;4.028;2022-12-01T09:05:04;55.15;;;31.65;;
21243;SDS011;10780;50.942;4.028;2022-12-01T09:07:30;56.00;;;29.77;;
21243;SDS011;10780;50.942;4.028;2022-12-01T09:09:58;60.28;;;31.90;;
21243;SDS011;10780;50.942;4.028;2022-12-01T09:12:30;59.58;;;30.98;;
21243;SDS011;10780;50.942;4.028;2022-12-01T09:14:57;59.33;;;32.38;;
21243;SDS011;10780;50.942;4.028;2022-12-01T09:17:28;58.90;;;29.58;;
21243;SDS011;10780;50.942;4.028;2022-12-01T09:19:59;59.25;;;30.10;;
21243;SDS011;10780;50.942;4.028;2022-12-01T09:22:43;62.80;;;31.38;;
21243;SDS011;10780;50.942;4.028;2022-12-01T09:25:14;57.53;;;30.38;;
21243;SDS011;10780;50.942;4.028;2022-12-01T09:27:40;53.03;;;28.48;;
21243;SDS011;10780;50.942;4.028;2022-12-01T09:30:06;57.10;;;29.48;;
21243;SDS011;10780;50.942;4.028;2022-12-01T09:32:32;58.25;;;30.42;;
21243;SDS011;10780;50.942;4.028;2022-12-01T09:34:59;53.97;;;28.38;;
21243;SDS011;10780;50.942;4.028;2022-12-01T09:37:25;59.88;;;30.50;;
21243;SDS011;10780;50.942;4.028;2022-12-01T09:39:50;56.17;;;29.52;;
21243;SDS011;10780;50.942;4.028;2022-12-01T09:42:16;60.50;;;30.67;;
21243;SDS011;10780;50.942;4.028;2022-12-01T09:44:51;59.67;;;28.98;;
21243;SDS011;10780;50.942;4.028;2022-12-01T09:47:26;50.88;;;28.98;;
21243;SDS011;10780;50.942;4.028;2022-12-01T09:49:58;52.35;;;28.35;;
21243;SDS011;10780;50.942;4.028;2022-12-01T09:52:32;50.25;;;27.83;;
21243;SDS011;10780;50.942;4.028;2022-12-01T09:55:11;55.10;;;28.40;;
21243;SDS011;10780;50.942;4.028;2022-12-01T09:57:39;54.55;;;29.60;;
21243;SDS011;10780;50.942;4.028;2022-12-01T10:00:11;49.33;;;27.75;;
21243;SDS011;10780;50.942;4.028;2022-12-01T10:02:50;48.10;;;29.20;;
21243;SDS011;10780;50.942;4.028;2022-12-01T10:05:21;48.67;;;26.13;;
21243;SDS011;10780;50.942;4.028;2022-12-01T10:07:59;50.20;;;26.75;;
21243;SDS011;10780;50.942;4.028;2022-12-01T10:13:24;48.50;;;26.60;;
21243;SDS011;10780;50.942;4.028;2022-12-01T10:26:50;44.70;;;25.75;;
21243;SDS011;10780;50.942;4.028;2022-12-01T10:29:40;43.65;;;25.52;;
21243;SDS011;10780;50.942;4.028;2022-12-01T10:32:22;48.40;;;25.92;;
21243;SDS011;10780;50.942;4.028;2022-12-01T10:34:57;44.85;;;24.83;;
21243;SDS011;10780;50.942;4.028;2022-12-01T10:37:24;51.67;;;25.38;;
21243;SDS011;10780;50.942;4.028;2022-12-01T10:39:54;49.92;;;25.92;;
21243;SDS011;10780;50.942;4.028;2022-12-01T10:45:04;48.20;;;26.02;;
21243;SDS011;10780;50.942;4.028;2022-12-01T10:47:34;51.42;;;26.08;;
21243;SDS011;10780;50.942;4.028;2022-12-01T10:49:59;46.85;;;26.52;;
21243;SDS011;10780;50.942;4.028;2022-12-01T10:52:40;48.40;;;26.00;;
21243;SDS011;10780;50.942;4.028;2022-12-01T10:57:46;52.17;;;28.23;;
21243;SDS011;10780;50.942;4.028;2022-12-01T11:00:20;51.78;;;26.15;;
21243;SDS011;10780;50.942;4.028;2022-12-01T11:02:50;45.50;;;24.48;;
21243;SDS011;10780;50.942;4.028;2022-12-01T11:05:38;49.33;;;25.75;;
21243;SDS011;10780;50.942;4.028;2022-12-01T11:08:17;50.60;;;25.27;;
21243;SDS011;10780;50.942;4.028;2022-12-01T11:10:56;45.28;;;25.60;;
21243;SDS011;10780;50.942;4.028;2022-12-01T11:13:23;46.58;;;24.02;;
21243;SDS011;10780;50.942;4.028;2022-12-01T11:16:01;48.35;;;25.70;;
21243;SDS011;10780;50.942;4.028;2022-12-01T11:21:13;44.90;;;23.15;;
21243;SDS011;10780;50.942;4.028;2022-12-01T11:23:50;43.08;;;23.40;;
21243;SDS011;10780;50.942;4.028;2022-12-01T11:26:18;44.63;;;23.67;;
21243;SDS011;10780;50.942;4.028;2022-12-01T11:28:53;43.72;;;23.42;;
21243;SDS011;10780;50.942;4.028;2022-12-01T11:31:47;46.35;;;24.23;;
21243;SDS011;10780;50.942;4.028;2022-12-01T11:37:03;46.65;;;24.42;;
21243;SDS011;10780;50.942;4.028;2022-12-01T11:39:39;47.67;;;26.80;;
21243;SDS011;10780;50.942;4.028;2022-12-01T11:44:49;39.22;;;23.80;;
21243;SDS011;10780;50.942;4.028;2022-12-01T11:47:19;45.75;;;25.42;;
21243;SDS011;10780;50.942;4.028;2022-12-01T11:49:51;44.17;;;23.23;;
21243;SDS011;10780;50.942;4.028;2022-12-01T11:52:23;39.83;;;23.85;;
21243;SDS011;10780;50.942;4.028;2022-12-01T11:54:54;42.92;;;25.25;;
21243;SDS011;10780;50.942;4.028;2022-12-01T11:57:20;47.58;;;25.20;;
21243;SDS011;10780;50.942;4.028;2022-12-01T11:59:46;43.83;;;24.63;;
21243;SDS011;10780;50.942;4.028;2022-12-01T12:07:51;38.97;;;23.00;;
21243;SDS011;10780;50.942;4.028;2022-12-01T12:18:48;45.83;;;25.08;;
21243;SDS011;10780;50.942;4.028;2022-12-01T12:38:01;55.63;;;30.23;;
21243;SDS011;10780;50.942;4.028;2022-12-01T12:43:48;55.85;;;29.27;;
21243;SDS011;10780;50.942;4.028;2022-12-01T12:46:48;54.10;;;29.65;;
21243;SDS011;10780;50.942;4.028;2022-12-01T12:52:23;54.45;;;28.50;;
21243;SDS011;10780;50.942;4.028;2022-12-01T12:54:58;50.42;;;27.05;;
21243;SDS011;10780;50.942;4.028;2022-12-01T12:57:38;51.55;;;26.33;;
21243;SDS011;10780;50.942;4.028;2022-12-01T13:05:45;46.65;;;25.70;;
21243;SDS011;10780;50.942;4.028;2022-12-01T13:08:21;42.25;;;24.65;;
21243;SDS011;10780;50.942;4.028;2022-12-01T13:13:58;49.78;;;27.50;;
21243;SDS011;10780;50.942;4.028;2022-12-01T13:16:50;42.58;;;23.90;;
21243;SDS011;10780;50.942;4.028;2022-12-01T13:19:34;46.90;;;25.17;;
21243;SDS011;10780;50.942;4.028;2022-12-01T13:22:05;39.08;;;22.08;;
21243;SDS011;10780;50.942;4.028;2022-12-01T13:24:33;38.83;;;23.52;;
21243;SDS011;10780;50.942;4.028;2022-12-01T13:27:01;42.97;;;24.67;;
21243;SDS011;10780;50.942;4.028;2022-12-01T13:29:47;39.38;;;22.10;;
21243;SDS011;10780;50.942;4.028;2022-12-01T13:35:28;39.03;;;21.58;;
21243;SDS011;10780;50.942;4.028;2022-12-01T13:38:39;31.75;;;20.25;;
21243;SDS011;10780;50.942;4.028;2022-12-01T13:41:55;32.50;;;19.17;;
21243;SDS011;10780;50.942;4.028;2022-12-01T13:44:43;35.80;;;20.50;;
21243;SDS011;10780;50.942;4.028;2022-12-01T13:59:36;36.00;;;20.38;;
21243;SDS011;10780;50.942;4.028;2022-12-01T14:02:28;33.42;;;20.25;;
21243;SDS011;10780;50.942;4.028;2022-12-01T14:05:41;34.97;;;18.05;;
21243;SDS011;10780;50.942;4.028;2022-12-01T14:08:13;37.92;;;20.17;;
21243;SDS011;10780;50.942;4.028;2022-12-01T14:10:53;33.65;;;21.42;;
21243;SDS011;10780;50.942;4.028;2022-12-01T14:13:53;34.70;;;20.25;;
21243;SDS011;10780;50.942;4.028;2022-12-01T14:16:49;32.75;;;19.30;;
21243;SDS011;10780;50.942;4.028;2022-12-01T14:19:41;31.10;;;19.55;;
21243;SDS011;10780;50.942;4.028;2022-12-01T14:25:23;30.50;;;18.67;;
21243;SDS011;10780;50.942;4.028;2022-12-01T14:28:03;34.90;;;17.38;;
21243;SDS011;10780;50.942;4.028;2022-12-01T14:39:12;28.92;;;18.05;;
21243;SDS011;10780;50.942;4.028;2022-12-01T14:42:13;27.75;;;15.85;;
21243;SDS011;10780;50.942;4.028;2022-12-01T14:45:11;34.60;;;18.08;;
21243;SDS011;10780;50.942;4.028;2022-12-01T14:48:12;28.02;;;17.08;;
21243;SDS011;10780;50.942;4.028;2022-12-01T14:54:01;28.60;;;16.92;;
21243;SDS011;10780;50.942;4.028;2022-12-01T14:56:51;31.38;;;18.25;;
21243;SDS011;10780;50.942;4.028;2022-12-01T14:59:33;29.42;;;17.58;;
21243;SDS011;10780;50.942;4.028;2022-12-01T15:02:07;29.85;;;17.33;;
21243;SDS011;10780;50.942;4.028;2022-12-01T15:07:54;30.23;;;18.33;;
21243;SDS011;10780;50.942;4.028;2022-12-01T15:13:10;31.10;;;18.63;;
21243;SDS011;10780;50.942;4.028;2022-12-01T15:15:50;30.08;;;16.00;;
21243;SDS011;10780;50.942;4.028;2022-12-01T15:21:12;29.75;;;16.73;;
21243;SDS011;10780;50.942;4.028;2022-12-01T15:23:59;28.27;;;15.27;;
21243;SDS011;10780;50.942;4.028;2022-12-01T15:26:30;26.00;;;14.85;;
21243;SDS011;10780;50.942;4.028;2022-12-01T15:31:38;27.83;;;15.98;;
21243;SDS011;10780;50.942;4.028;2022-12-01T15:34:04;31.52;;;15.88;;
21243;SDS011;10780;50.942;4.028;2022-12-01T15:36:36;30.25;;;16.85;;
21243;SDS011;10780;50.942;4.028;2022-12-01T15:39:02;28.15;;;15.30;;
21243;SDS011;10780;50.942;4.028;2022-12-01T15:41:27;28.05;;;15.77;;
21243;SDS011;10780;50.942;4.028;2022-12-01T15:43:54;32.38;;;16.33;;
21243;SDS011;10780;50.942;4.028;2022-12-01T15:46:31;28.92;;;15.43;;
21243;SDS011;10780;50.942;4.028;2022-12-01T15:49:13;28.92;;;16.52;;
21243;SDS011;10780;50.942;4.028;2022-12-01T15:51:43;33.08;;;16.48;;
21243;SDS011;10780;50.942;4.028;2022-12-01T15:54:17;28.27;;;16.08;;
21243;SDS011;10780;50.942;4.028;2022-12-01T15:56:52;29.40;;;17.23;;
21243;SDS011;10780;50.942;4.028;2022-12-01T15:59:27;29.02;;;17.58;;
21243;SDS011;10780;50.942;4.028;2022-12-01T16:01:57;35.40;;;17.58;;
21243;SDS011;10780;50.942;4.028;2022-12-01T16:04:24;32.58;;;18.40;;
21243;SDS011;10780;50.942;4.028;2022-12-01T16:09:40;36.50;;;19.60;;
21243;SDS011;10780;50.942;4.028;2022-12-01T16:17:13;35.42;;;19.08;;
21243;SDS011;10780;50.942;4.028;2022-12-01T16:19:41;37.00;;;18.73;;
21243;SDS011;10780;50.942;4.028;2022-12-01T16:24:51;38.72;;;19.00;;
21243;SDS011;10780;50.942;4.028;2022-12-01T16:27:22;33.72;;;18.75;;
21243;SDS011;10780;50.942;4.028;2022-12-01T16:32:18;32.53;;;18.13;;
21243;SDS011;10780;50.942;4.028;2022-12-01T16:34:48;40.85;;;20.05;;
21243;SDS011;10780;50.942;4.028;2022-12-01T16:37:17;39.95;;;19.98;;
21243;SDS011;10780;50.942;4.028;2022-12-01T16:39:42;38.22;;;20.52;;
21243;SDS011;10780;50.942;4.028;2022-12-01T16:42:12;36.45;;;18.45;;
21243;SDS011;10780;50.942;4.028;2022-12-01T16:44:40;40.08;;;19.70;;
21243;SDS011;10780;50.942;4.028;2022-12-01T16:47:11;41.88;;;20.50;;
21243;SDS011;10780;50.942;4.028;2022-12-01T16:49:42;46.97;;;21.33;;
21243;SDS011;10780;50.942;4.028;2022-12-01T16:52:08;41.83;;;19.88;;
21243;SDS011;10780;50.942;4.028;2022-12-01T16:54:34;46.30;;;22.65;;
21243;SDS011;10780;50.942;4.028;2022-12-01T16:56:59;48.90;;;23.20;;
21243;SDS011;10780;50.942;4.028;2022-12-01T16:59:25;46.55;;;23.23;;
21243;SDS011;10780;50.942;4.028;2022-12-01T17:01:50;49.40;;;23.00;;
21243;SDS011;10780;50.942;4.028;2022-12-01T17:04:16;43.60;;;23.80;;
21243;SDS011;10780;50.942;4.028;2022-12-01T17:06:42;47.70;;;23.33;;
21243;SDS011;10780;50.942;4.028;2022-12-01T17:09:08;50.00;;;23.30;;
21243;SDS011;10780;50.942;4.028;2022-12-01T17:11:33;48.80;;;23.48;;
21243;SDS011;10780;50.942;4.028;2022-12-01T17:13:59;51.45;;;23.63;;
21243;SDS011;10780;50.942;4.028;2022-12-01T17:16:24;51.83;;;23.88;;